sensor_id;sensor_type;location;lat;lon;timestamp;P1;durP1;ratioP1;P2;durP2;ratioP2
3193;SDS011;1608;50.860;13.466;2023-04-24T00:01:09;7.60;;;5.00;;
3193;SDS011;1608;50.860;13.466;2023-04-24T00:03:37;6.97;;;5.27;;
3193;SDS011;1608;50.860;13.466;2023-04-24T00:06:04;8.00;;;5.50;;
3193;SDS011;1608;50.860;13.466;2023-04-24T00:08:31;7.60;;;6.00;;
3193;SDS011;1608;50.860;13.466;2023-04-24T00:10:58;5.77;;;5.20;;
3193;SDS011;1608;50.860;13.466;2023-04-24T00:13:25;6.90;;;5.63;;
3193;SDS011;1608;50.860;13.466;2023-04-24T00:15:53;10.30;;;5.10;;
3193;SDS011;1608;50.860;13.466;2023-04-24T00:18:20;5.87;;;5.27;;
3193;SDS011;1608;50.860;13.466;2023-04-24T00:20:48;7.67;;;5.60;;
3193;SDS011;1608;50.860;13.466;2023-04-24T00:23:15;5.90;;;4.60;;
3193;SDS011;1608;50.860;13.466;2023-04-24T00:25:42;7.50;;;4.90;;
3193;SDS011;1608;50.860;13.466;2023-04-24T00:28:08;9.73;;;5.73;;
3193;SDS011;1608;50.860;13.466;2023-04-24T00:30:35;6.90;;;5.57;;
3193;SDS011;1608;50.860;13.466;2023-04-24T00:33:02;7.17;;;5.37;;
3193;SDS011;1608;50.860;13.466;2023-04-24T00:35:29;7.50;;;5.40;;
3193;SDS011;1608;50.860;13.466;2023-04-24T00:37:57;8.67;;;5.60;;
3193;SDS011;1608;50.860;13.466;2023-04-24T00:40:24;5.63;;;5.07;;
3193;SDS011;1608;50.860;13.466;2023-04-24T00:42:51;6.30;;;5.10;;
3193;SDS011;1608;50.860;13.466;2023-04-24T00:45:18;6.87;;;5.53;;
3193;SDS011;1608;50.860;13.466;2023-04-24T00:47:45;9.20;;;5.50;;
3193;SDS011;1608;50.860;13.466;2023-04-24T00:50:14;7.90;;;5.37;;
3193;SDS011;1608;50.860;13.466;2023-04-24T00:52:42;6.00;;;4.63;;
3193;SDS011;1608;50.860;13.466;2023-04-24T00:55:10;5.33;;;4.80;;
3193;SDS011;1608;50.860;13.466;2023-04-24T00:57:37;7.00;;;5.50;;
3193;SDS011;1608;50.860;13.466;2023-04-24T01:00:05;7.33;;;5.53;;
3193;SDS011;1608;50.860;13.466;2023-04-24T01:02:35;7.40;;;5.30;;
3193;SDS011;1608;50.860;13.466;2023-04-24T01:05:05;6.47;;;4.90;;
3193;SDS011;1608;50.860;13.466;2023-04-24T01:07:33;5.33;;;4.63;;
3193;SDS011;1608;50.860;13.466;2023-04-24T01:10:00;6.53;;;5.07;;
3193;SDS011;1608;50.860;13.466;2023-04-24T01:12:29;4.97;;;4.47;;
3193;SDS011;1608;50.860;13.466;2023-04-24T01:14:56;4.73;;;3.40;;
3193;SDS011;1608;50.860;13.466;2023-04-24T01:17:24;4.13;;;3.73;;
3193;SDS011;1608;50.860;13.466;2023-04-24T01:19:50;6.20;;;2.93;;
3193;SDS011;1608;50.860;13.466;2023-04-24T01:22:20;3.57;;;2.63;;
3193;SDS011;1608;50.860;13.466;2023-04-24T01:24:47;4.97;;;3.77;;
3193;SDS011;1608;50.860;13.466;2023-04-24T01:27:14;3.57;;;3.20;;
3193;SDS011;1608;50.860;13.466;2023-04-24T01:29:40;4.03;;;2.93;;
3193;SDS011;1608;50.860;13.466;2023-04-24T01:32:07;3.70;;;3.00;;
3193;SDS011;1608;50.860;13.466;2023-04-24T01:34:34;3.30;;;2.80;;
3193;SDS011;1608;50.860;13.466;2023-04-24T01:37:01;5.50;;;4.10;;
3193;SDS011;1608;50.860;13.466;2023-04-24T01:39:29;3.43;;;3.13;;
3193;SDS011;1608;50.860;13.466;2023-04-24T01:41:56;4.00;;;2.87;;
3193;SDS011;1608;50.860;13.466;2023-04-24T01:44:23;6.03;;;3.77;;
3193;SDS011;1608;50.860;13.466;2023-04-24T01:46:50;4.90;;;3.83;;
3193;SDS011;1608;50.860;13.466;2023-04-24T01:49:19;4.10;;;3.40;;
3193;SDS011;1608;50.860;13.466;2023-04-24T01:51:46;6.10;;;4.00;;
3193;SDS011;1608;50.860;13.466;2023-04-24T01:54:13;5.43;;;3.93;;
3193;SDS011;1608;50.860;13.466;2023-04-24T01:56:42;4.67;;;3.30;;
3193;SDS011;1608;50.860;13.466;2023-04-24T01:59:09;4.60;;;3.60;;
3193;SDS011;1608;50.860;13.466;2023-04-24T02:01:37;3.77;;;3.00;;
3193;SDS011;1608;50.860;13.466;2023-04-24T02:04:04;4.30;;;3.50;;
3193;SDS011;1608;50.860;13.466;2023-04-24T02:06:32;6.07;;;3.63;;
3193;SDS011;1608;50.860;13.466;2023-04-24T02:08:59;4.83;;;3.27;;
3193;SDS011;1608;50.860;13.466;2023-04-24T02:11:26;4.50;;;3.73;;
3193;SDS011;1608;50.860;13.466;2023-04-24T02:13:54;4.17;;;3.30;;
3193;SDS011;1608;50.860;13.466;2023-04-24T02:16:21;4.53;;;3.77;;
3193;SDS011;1608;50.860;13.466;2023-04-24T02:18:48;5.00;;;3.67;;
3193;SDS011;1608;50.860;13.466;2023-04-24T02:21:15;3.63;;;2.80;;
3193;SDS011;1608;50.860;13.466;2023-04-24T02:23:41;3.30;;;3.00;;
3193;SDS011;1608;50.860;13.466;2023-04-24T02:26:08;2.90;;;2.53;;
3193;SDS011;1608;50.860;13.466;2023-04-24T02:28:36;4.00;;;2.40;;
3193;SDS011;1608;50.860;13.466;2023-04-24T02:31:04;2.97;;;2.50;;
3193;SDS011;1608;50.860;13.466;2023-04-24T02:33:31;3.47;;;2.33;;
3193;SDS011;1608;50.860;13.466;2023-04-24T02:35:58;3.90;;;2.23;;
3193;SDS011;1608;50.860;13.466;2023-04-24T02:38:25;3.93;;;2.90;;
3193;SDS011;1608;50.860;13.466;2023-04-24T02:40:51;3.60;;;2.27;;
3193;SDS011;1608;50.860;13.466;2023-04-24T02:43:18;2.23;;;1.90;;
3193;SDS011;1608;50.860;13.466;2023-04-24T02:45:45;2.03;;;1.83;;
3193;SDS011;1608;50.860;13.466;2023-04-24T02:48:13;7.20;;;2.63;;
3193;SDS011;1608;50.860;13.466;2023-04-24T02:50:40;4.70;;;2.13;;
3193;SDS011;1608;50.860;13.466;2023-04-24T02:53:07;2.40;;;2.20;;
3193;SDS011;1608;50.860;13.466;2023-04-24T02:55:34;1.70;;;1.60;;
3193;SDS011;1608;50.860;13.466;2023-04-24T02:58:01;2.40;;;2.20;;
3193;SDS011;1608;50.860;13.466;2023-04-24T03:00:27;1.73;;;1.60;;
3193;SDS011;1608;50.860;13.466;2023-04-24T03:02:54;1.90;;;1.70;;
3193;SDS011;1608;50.860;13.466;2023-04-24T03:05:23;4.23;;;1.60;;
3193;SDS011;1608;50.860;13.466;2023-04-24T03:07:50;2.20;;;1.70;;
3193;SDS011;1608;50.860;13.466;2023-04-24T03:10:17;3.00;;;1.73;;
3193;SDS011;1608;50.860;13.466;2023-04-24T03:12:44;2.17;;;1.80;;
3193;SDS011;1608;50.860;13.466;2023-04-24T03:15:11;5.10;;;2.03;;
3193;SDS011;1608;50.860;13.466;2023-04-24T03:17:38;3.00;;;1.13;;
3193;SDS011;1608;50.860;13.466;2023-04-24T03:20:05;2.40;;;2.10;;
3193;SDS011;1608;50.860;13.466;2023-04-24T03:22:34;2.37;;;1.63;;
3193;SDS011;1608;50.860;13.466;2023-04-24T03:25:01;1.80;;;1.53;;
3193;SDS011;1608;50.860;13.466;2023-04-24T03:27:29;2.60;;;1.97;;
3193;SDS011;1608;50.860;13.466;2023-04-24T03:29:56;3.43;;;3.00;;
3193;SDS011;1608;50.860;13.466;2023-04-24T03:32:23;1.70;;;1.53;;
3193;SDS011;1608;50.860;13.466;2023-04-24T03:34:50;3.13;;;1.57;;
3193;SDS011;1608;50.860;13.466;2023-04-24T03:37:16;1.90;;;1.70;;
3193;SDS011;1608;50.860;13.466;2023-04-24T03:39:45;1.70;;;1.60;;
3193;SDS011;1608;50.860;13.466;2023-04-24T03:42:11;2.83;;;1.50;;
3193;SDS011;1608;50.860;13.466;2023-04-24T03:44:38;1.60;;;1.50;;
3193;SDS011;1608;50.860;13.466;2023-04-24T03:47:05;3.97;;;2.00;;
3193;SDS011;1608;50.860;13.466;2023-04-24T03:49:32;2.63;;;1.80;;
3193;SDS011;1608;50.860;13.466;2023-04-24T03:51:58;1.80;;;1.50;;
3193;SDS011;1608;50.860;13.466;2023-04-24T03:54:25;1.60;;;1.40;;
3193;SDS011;1608;50.860;13.466;2023-04-24T03:56:54;3.03;;;2.00;;
3193;SDS011;1608;50.860;13.466;2023-04-24T03:59:21;2.47;;;1.90;;
3193;SDS011;1608;50.860;13.466;2023-04-24T04:01:47;3.00;;;2.03;;
3193;SDS011;1608;50.860;13.466;2023-04-24T04:04:14;2.37;;;1.40;;
3193;SDS011;1608;50.860;13.466;2023-04-24T04:06:41;2.40;;;1.70;;
3193;SDS011;1608;50.860;13.466;2023-04-24T04:09:09;2.13;;;1.87;;
3193;SDS011;1608;50.860;13.466;2023-04-24T04:11:35;1.50;;;1.23;;
3193;SDS011;1608;50.860;13.466;2023-04-24T04:14:04;5.40;;;2.20;;
3193;SDS011;1608;50.860;13.466;2023-04-24T04:16:31;2.13;;;1.70;;
3193;SDS011;1608;50.860;13.466;2023-04-24T04:18:57;1.87;;;1.77;;
3193;SDS011;1608;50.860;13.466;2023-04-24T04:21:24;4.50;;;1.80;;
3193;SDS011;1608;50.860;13.466;2023-04-24T04:23:52;1.83;;;1.73;;
3193;SDS011;1608;50.860;13.466;2023-04-24T04:26:18;3.37;;;2.30;;
3193;SDS011;1608;50.860;13.466;2023-04-24T04:28:46;1.83;;;1.37;;
3193;SDS011;1608;50.860;13.466;2023-04-24T04:31:15;1.87;;;1.20;;
3193;SDS011;1608;50.860;13.466;2023-04-24T04:33:42;2.83;;;2.60;;
3193;SDS011;1608;50.860;13.466;2023-04-24T04:36:08;3.57;;;1.80;;
3193;SDS011;1608;50.860;13.466;2023-04-24T04:38:35;2.07;;;1.67;;
3193;SDS011;1608;50.860;13.466;2023-04-24T04:41:02;3.23;;;1.90;;
3193;SDS011;1608;50.860;13.466;2023-04-24T04:43:29;1.90;;;1.53;;
3193;SDS011;1608;50.860;13.466;2023-04-24T04:45:57;2.33;;;2.13;;
3193;SDS011;1608;50.860;13.466;2023-04-24T04:48:27;5.23;;;1.67;;
3193;SDS011;1608;50.860;13.466;2023-04-24T04:50:53;2.10;;;1.80;;
3193;SDS011;1608;50.860;13.466;2023-04-24T04:53:20;1.70;;;1.60;;
3193;SDS011;1608;50.860;13.466;2023-04-24T04:55:47;3.30;;;1.90;;
3193;SDS011;1608;50.860;13.466;2023-04-24T04:58:14;2.17;;;1.97;;
3193;SDS011;1608;50.860;13.466;2023-04-24T05:00:41;2.00;;;1.33;;
3193;SDS011;1608;50.860;13.466;2023-04-24T05:03:08;2.40;;;1.67;;
3193;SDS011;1608;50.860;13.466;2023-04-24T05:05:36;2.00;;;1.13;;
3193;SDS011;1608;50.860;13.466;2023-04-24T05:08:05;1.50;;;1.40;;
3193;SDS011;1608;50.860;13.466;2023-04-24T05:10:32;1.67;;;1.33;;
3193;SDS011;1608;50.860;13.466;2023-04-24T05:12:59;3.03;;;1.50;;
3193;SDS011;1608;50.860;13.466;2023-04-24T05:15:26;4.40;;;1.70;;
3193;SDS011;1608;50.860;13.466;2023-04-24T05:17:53;2.90;;;1.90;;
3193;SDS011;1608;50.860;13.466;2023-04-24T05:20:20;2.70;;;1.73;;
3193;SDS011;1608;50.860;13.466;2023-04-24T05:22:48;2.30;;;1.30;;
3193;SDS011;1608;50.860;13.466;2023-04-24T05:25:15;2.73;;;1.50;;
3193;SDS011;1608;50.860;13.466;2023-04-24T05:27:42;1.50;;;1.40;;
3193;SDS011;1608;50.860;13.466;2023-04-24T05:30:09;3.33;;;1.87;;
3193;SDS011;1608;50.860;13.466;2023-04-24T05:32:37;1.20;;;1.10;;
3193;SDS011;1608;50.860;13.466;2023-04-24T05:35:04;2.17;;;1.40;;
3193;SDS011;1608;50.860;13.466;2023-04-24T05:37:31;2.07;;;1.80;;
3193;SDS011;1608;50.860;13.466;2023-04-24T05:39:59;6.50;;;2.20;;
3193;SDS011;1608;50.860;13.466;2023-04-24T05:42:26;2.10;;;1.47;;
3193;SDS011;1608;50.860;13.466;2023-04-24T05:44:53;1.67;;;1.53;;
3193;SDS011;1608;50.860;13.466;2023-04-24T05:47:20;1.30;;;1.20;;
3193;SDS011;1608;50.860;13.466;2023-04-24T05:49:47;1.57;;;1.43;;
3193;SDS011;1608;50.860;13.466;2023-04-24T05:52:14;5.00;;;1.67;;
3193;SDS011;1608;50.860;13.466;2023-04-24T05:54:41;2.40;;;1.20;;
3193;SDS011;1608;50.860;13.466;2023-04-24T05:57:09;6.43;;;1.70;;
3193;SDS011;1608;50.860;13.466;2023-04-24T05:59:36;1.73;;;1.60;;
3193;SDS011;1608;50.860;13.466;2023-04-24T06:02:04;1.87;;;1.23;;
3193;SDS011;1608;50.860;13.466;2023-04-24T06:04:31;1.37;;;1.00;;
3193;SDS011;1608;50.860;13.466;2023-04-24T06:06:58;3.17;;;1.37;;
3193;SDS011;1608;50.860;13.466;2023-04-24T06:09:25;3.53;;;1.60;;
3193;SDS011;1608;50.860;13.466;2023-04-24T06:11:52;1.57;;;1.17;;
3193;SDS011;1608;50.860;13.466;2023-04-24T06:14:21;3.20;;;1.80;;
3193;SDS011;1608;50.860;13.466;2023-04-24T06:16:47;2.17;;;1.30;;
3193;SDS011;1608;50.860;13.466;2023-04-24T06:19:14;1.73;;;1.53;;
3193;SDS011;1608;50.860;13.466;2023-04-24T06:21:41;1.80;;;1.40;;
3193;SDS011;1608;50.860;13.466;2023-04-24T06:24:08;9.10;;;1.90;;
3193;SDS011;1608;50.860;13.466;2023-04-24T06:26:35;1.53;;;1.13;;
3193;SDS011;1608;50.860;13.466;2023-04-24T06:29:02;1.30;;;0.97;;
3193;SDS011;1608;50.860;13.466;2023-04-24T06:31:30;1.57;;;1.23;;
3193;SDS011;1608;50.860;13.466;2023-04-24T06:34:01;3.63;;;1.40;;
3193;SDS011;1608;50.860;13.466;2023-04-24T06:36:28;5.57;;;3.60;;
3193;SDS011;1608;50.860;13.466;2023-04-24T06:38:56;2.13;;;1.67;;
3193;SDS011;1608;50.860;13.466;2023-04-24T06:41:23;3.40;;;3.20;;
3193;SDS011;1608;50.860;13.466;2023-04-24T06:43:50;2.03;;;1.33;;
3193;SDS011;1608;50.860;13.466;2023-04-24T06:46:17;1.80;;;1.23;;
3193;SDS011;1608;50.860;13.466;2023-04-24T06:48:45;2.90;;;1.73;;
3193;SDS011;1608;50.860;13.466;2023-04-24T06:51:11;2.80;;;1.40;;
3193;SDS011;1608;50.860;13.466;2023-04-24T06:53:38;2.47;;;1.43;;
3193;SDS011;1608;50.860;13.466;2023-04-24T06:56:05;1.80;;;1.30;;
3193;SDS011;1608;50.860;13.466;2023-04-24T06:58:33;3.60;;;1.60;;
3193;SDS011;1608;50.860;13.466;2023-04-24T07:00:59;1.83;;;1.13;;
3193;SDS011;1608;50.860;13.466;2023-04-24T07:03:26;2.23;;;1.53;;
3193;SDS011;1608;50.860;13.466;2023-04-24T07:05:55;5.13;;;1.23;;
3193;SDS011;1608;50.860;13.466;2023-04-24T07:08:22;2.80;;;1.40;;
3193;SDS011;1608;50.860;13.466;2023-04-24T07:10:50;1.53;;;0.97;;
3193;SDS011;1608;50.860;13.466;2023-04-24T07:13:17;6.87;;;1.20;;
3193;SDS011;1608;50.860;13.466;2023-04-24T07:15:44;6.40;;;2.00;;
3193;SDS011;1608;50.860;13.466;2023-04-24T07:18:10;1.50;;;1.10;;
3193;SDS011;1608;50.860;13.466;2023-04-24T07:20:39;1.47;;;1.13;;
3193;SDS011;1608;50.860;13.466;2023-04-24T07:23:07;1.27;;;0.90;;
3193;SDS011;1608;50.860;13.466;2023-04-24T07:25:34;1.70;;;1.00;;
3193;SDS011;1608;50.860;13.466;2023-04-24T07:28:01;1.90;;;1.37;;
3193;SDS011;1608;50.860;13.466;2023-04-24T07:30:29;1.53;;;1.10;;
3193;SDS011;1608;50.860;13.466;2023-04-24T07:32:57;1.67;;;1.37;;
3193;SDS011;1608;50.860;13.466;2023-04-24T07:35:24;4.23;;;1.10;;
3193;SDS011;1608;50.860;13.466;2023-04-24T07:37:51;3.70;;;1.10;;
3193;SDS011;1608;50.860;13.466;2023-04-24T07:40:20;2.90;;;1.20;;
3193;SDS011;1608;50.860;13.466;2023-04-24T07:42:48;1.00;;;0.90;;
3193;SDS011;1608;50.860;13.466;2023-04-24T07:45:15;2.40;;;1.23;;
3193;SDS011;1608;50.860;13.466;2023-04-24T07:47:42;6.23;;;1.70;;
3193;SDS011;1608;50.860;13.466;2023-04-24T07:50:10;2.43;;;0.97;;
3193;SDS011;1608;50.860;13.466;2023-04-24T07:52:37;9.00;;;1.97;;
3193;SDS011;1608;50.860;13.466;2023-04-24T07:55:05;13.77;;;1.57;;
3193;SDS011;1608;50.860;13.466;2023-04-24T07:57:33;1.43;;;1.10;;
3193;SDS011;1608;50.860;13.466;2023-04-24T08:00:00;1.93;;;1.20;;
3193;SDS011;1608;50.860;13.466;2023-04-24T08:02:27;1.43;;;0.93;;
3193;SDS011;1608;50.860;13.466;2023-04-24T08:04:54;6.40;;;1.10;;
3193;SDS011;1608;50.860;13.466;2023-04-24T08:07:21;2.47;;;2.27;;
3193;SDS011;1608;50.860;13.466;2023-04-24T08:09:49;1.90;;;1.50;;
3193;SDS011;1608;50.860;13.466;2023-04-24T08:12:15;3.53;;;1.10;;
3193;SDS011;1608;50.860;13.466;2023-04-24T08:14:44;6.27;;;2.33;;
3193;SDS011;1608;50.860;13.466;2023-04-24T08:17:10;3.23;;;1.60;;
3193;SDS011;1608;50.860;13.466;2023-04-24T08:19:37;3.17;;;1.43;;
3193;SDS011;1608;50.860;13.466;2023-04-24T08:22:08;4.70;;;1.30;;
3193;SDS011;1608;50.860;13.466;2023-04-24T08:24:34;3.63;;;1.23;;
3193;SDS011;1608;50.860;13.466;2023-04-24T08:27:01;3.67;;;1.70;;
3193;SDS011;1608;50.860;13.466;2023-04-24T08:29:28;1.90;;;1.47;;
3193;SDS011;1608;50.860;13.466;2023-04-24T08:31:56;5.73;;;2.60;;
3193;SDS011;1608;50.860;13.466;2023-04-24T08:34:23;4.20;;;2.80;;
3193;SDS011;1608;50.860;13.466;2023-04-24T08:36:50;1.63;;;1.27;;
3193;SDS011;1608;50.860;13.466;2023-04-24T08:39:17;3.73;;;1.20;;
3193;SDS011;1608;50.860;13.466;2023-04-24T08:41:44;3.40;;;1.30;;
3193;SDS011;1608;50.860;13.466;2023-04-24T08:44:11;5.23;;;1.20;;
3193;SDS011;1608;50.860;13.466;2023-04-24T08:46:40;1.50;;;1.20;;
3193;SDS011;1608;50.860;13.466;2023-04-24T08:49:09;4.30;;;1.40;;
3193;SDS011;1608;50.860;13.466;2023-04-24T08:51:37;2.30;;;1.60;;
3193;SDS011;1608;50.860;13.466;2023-04-24T08:54:05;2.13;;;0.87;;
3193;SDS011;1608;50.860;13.466;2023-04-24T08:56:33;1.20;;;0.90;;
3193;SDS011;1608;50.860;13.466;2023-04-24T08:59:04;1.60;;;1.50;;
3193;SDS011;1608;50.860;13.466;2023-04-24T09:01:31;1.50;;;0.90;;
3193;SDS011;1608;50.860;13.466;2023-04-24T09:04:00;1.63;;;1.00;;
3193;SDS011;1608;50.860;13.466;2023-04-24T09:06:29;3.33;;;1.33;;
3193;SDS011;1608;50.860;13.466;2023-04-24T09:08:57;1.97;;;0.80;;
3193;SDS011;1608;50.860;13.466;2023-04-24T09:11:27;1.17;;;0.83;;
3193;SDS011;1608;50.860;13.466;2023-04-24T09:13:54;1.70;;;1.17;;
3193;SDS011;1608;50.860;13.466;2023-04-24T09:16:22;0.90;;;0.70;;
3193;SDS011;1608;50.860;13.466;2023-04-24T09:18:51;10.10;;;1.30;;
3193;SDS011;1608;50.860;13.466;2023-04-24T09:21:19;1.27;;;0.93;;
3193;SDS011;1608;50.860;13.466;2023-04-24T09:23:49;1.33;;;1.23;;
3193;SDS011;1608;50.860;13.466;2023-04-24T09:26:24;7.03;;;1.50;;
3193;SDS011;1608;50.860;13.466;2023-04-24T09:28:53;1.43;;;1.13;;
3193;SDS011;1608;50.860;13.466;2023-04-24T09:31:19;1.70;;;1.43;;
3193;SDS011;1608;50.860;13.466;2023-04-24T09:33:53;2.30;;;1.00;;
3193;SDS011;1608;50.860;13.466;2023-04-24T09:36:26;1.60;;;0.90;;
3193;SDS011;1608;50.860;13.466;2023-04-24T09:38:57;1.10;;;0.90;;
3193;SDS011;1608;50.860;13.466;2023-04-24T09:41:24;3.10;;;1.20;;
3193;SDS011;1608;50.860;13.466;2023-04-24T09:43:53;1.00;;;0.80;;
3193;SDS011;1608;50.860;13.466;2023-04-24T09:46:20;3.00;;;1.10;;
3193;SDS011;1608;50.860;13.466;2023-04-24T09:48:47;2.20;;;1.80;;
3193;SDS011;1608;50.860;13.466;2023-04-24T09:51:14;2.20;;;1.10;;
3193;SDS011;1608;50.860;13.466;2023-04-24T09:53:45;3.20;;;1.50;;
3193;SDS011;1608;50.860;13.466;2023-04-24T09:56:13;2.33;;;1.10;;
3193;SDS011;1608;50.860;13.466;2023-04-24T09:58:40;3.13;;;1.00;;
3193;SDS011;1608;50.860;13.466;2023-04-24T10:01:07;1.93;;;1.10;;
3193;SDS011;1608;50.860;13.466;2023-04-24T10:03:34;1.40;;;1.10;;
3193;SDS011;1608;50.860;13.466;2023-04-24T10:06:01;1.50;;;1.37;;
3193;SDS011;1608;50.860;13.466;2023-04-24T10:08:33;1.43;;;0.90;;
3193;SDS011;1608;50.860;13.466;2023-04-24T10:11:01;1.60;;;1.10;;
3193;SDS011;1608;50.860;13.466;2023-04-24T10:13:29;2.07;;;1.00;;
3193;SDS011;1608;50.860;13.466;2023-04-24T10:15:58;1.47;;;0.80;;
3193;SDS011;1608;50.860;13.466;2023-04-24T10:18:26;1.97;;;1.10;;
3193;SDS011;1608;50.860;13.466;2023-04-24T10:20:53;6.10;;;1.33;;
3193;SDS011;1608;50.860;13.466;2023-04-24T10:23:21;2.70;;;1.00;;
3193;SDS011;1608;50.860;13.466;2023-04-24T10:25:48;1.37;;;0.80;;
3193;SDS011;1608;50.860;13.466;2023-04-24T10:28:16;2.00;;;1.10;;
3193;SDS011;1608;50.860;13.466;2023-04-24T10:30:46;1.50;;;1.40;;
3193;SDS011;1608;50.860;13.466;2023-04-24T10:33:14;3.00;;;1.53;;
3193;SDS011;1608;50.860;13.466;2023-04-24T10:35:44;2.23;;;1.00;;
3193;SDS011;1608;50.860;13.466;2023-04-24T10:38:14;1.70;;;1.60;;
3193;SDS011;1608;50.860;13.466;2023-04-24T10:40:43;2.87;;;1.43;;
3193;SDS011;1608;50.860;13.466;2023-04-24T10:43:10;2.60;;;1.47;;
3193;SDS011;1608;50.860;13.466;2023-04-24T10:45:59;5.80;;;1.63;;
3193;SDS011;1608;50.860;13.466;2023-04-24T10:48:27;2.23;;;1.43;;
3193;SDS011;1608;50.860;13.466;2023-04-24T10:50:54;9.47;;;1.40;;
3193;SDS011;1608;50.860;13.466;2023-04-24T10:53:22;5.60;;;1.90;;
3193;SDS011;1608;50.860;13.466;2023-04-24T10:55:52;3.20;;;2.03;;
3193;SDS011;1608;50.860;13.466;2023-04-24T10:58:24;3.33;;;2.10;;
3193;SDS011;1608;50.860;13.466;2023-04-24T11:01:04;3.10;;;1.70;;
3193;SDS011;1608;50.860;13.466;2023-04-24T11:03:32;2.30;;;1.67;;
3193;SDS011;1608;50.860;13.466;2023-04-24T11:06:01;2.60;;;1.87;;
3193;SDS011;1608;50.860;13.466;2023-04-24T11:08:29;1.97;;;1.73;;
3193;SDS011;1608;50.860;13.466;2023-04-24T11:10:58;1.50;;;1.40;;
3193;SDS011;1608;50.860;13.466;2023-04-24T11:13:29;2.90;;;2.37;;
3193;SDS011;1608;50.860;13.466;2023-04-24T11:16:29;2.40;;;1.63;;
3193;SDS011;1608;50.860;13.466;2023-04-24T11:19:01;2.40;;;1.37;;
3193;SDS011;1608;50.860;13.466;2023-04-24T11:21:30;3.63;;;1.43;;
3193;SDS011;1608;50.860;13.466;2023-04-24T11:23:58;2.63;;;2.40;;
3193;SDS011;1608;50.860;13.466;2023-04-24T11:26:45;5.10;;;2.80;;
3193;SDS011;1608;50.860;13.466;2023-04-24T11:29:12;5.17;;;3.83;;
3193;SDS011;1608;50.860;13.466;2023-04-24T11:31:40;1.73;;;1.27;;
3193;SDS011;1608;50.860;13.466;2023-04-24T11:34:13;1.63;;;1.53;;
3193;SDS011;1608;50.860;13.466;2023-04-24T11:36:42;2.33;;;1.53;;
3193;SDS011;1608;50.860;13.466;2023-04-24T11:39:10;1.60;;;1.50;;
3193;SDS011;1608;50.860;13.466;2023-04-24T11:41:37;1.83;;;1.60;;
3193;SDS011;1608;50.860;13.466;2023-04-24T11:44:08;2.10;;;1.40;;
3193;SDS011;1608;50.860;13.466;2023-04-24T11:46:36;3.53;;;1.50;;
3193;SDS011;1608;50.860;13.466;2023-04-24T11:49:06;1.83;;;1.60;;
3193;SDS011;1608;50.860;13.466;2023-04-24T11:51:33;1.67;;;1.37;;
3193;SDS011;1608;50.860;13.466;2023-04-24T11:54:00;2.03;;;1.40;;
3193;SDS011;1608;50.860;13.466;2023-04-24T11:56:28;5.20;;;1.40;;
3193;SDS011;1608;50.860;13.466;2023-04-24T11:58:55;1.30;;;1.20;;
3193;SDS011;1608;50.860;13.466;2023-04-24T12:01:21;1.70;;;1.50;;
3193;SDS011;1608;50.860;13.466;2023-04-24T12:03:48;3.43;;;1.33;;
3193;SDS011;1608;50.860;13.466;2023-04-24T12:06:17;10.13;;;1.60;;
3193;SDS011;1608;50.860;13.466;2023-04-24T12:08:47;2.80;;;1.90;;
3193;SDS011;1608;50.860;13.466;2023-04-24T12:11:15;2.20;;;1.60;;
3193;SDS011;1608;50.860;13.466;2023-04-24T12:13:43;1.47;;;1.30;;
3193;SDS011;1608;50.860;13.466;2023-04-24T12:16:11;2.27;;;1.37;;
3193;SDS011;1608;50.860;13.466;2023-04-24T12:18:41;1.63;;;1.43;;
3193;SDS011;1608;50.860;13.466;2023-04-24T12:21:18;2.90;;;2.13;;
3193;SDS011;1608;50.860;13.466;2023-04-24T12:23:46;2.57;;;2.30;;
3193;SDS011;1608;50.860;13.466;2023-04-24T12:26:15;2.20;;;2.00;;
3193;SDS011;1608;50.860;13.466;2023-04-24T12:28:45;4.00;;;3.13;;
3193;SDS011;1608;50.860;13.466;2023-04-24T12:31:14;1.67;;;1.57;;
3193;SDS011;1608;50.860;13.466;2023-04-24T12:33:41;5.33;;;1.60;;
3193;SDS011;1608;50.860;13.466;2023-04-24T12:36:09;2.10;;;1.90;;
3193;SDS011;1608;50.860;13.466;2023-04-24T12:38:38;2.33;;;1.63;;
3193;SDS011;1608;50.860;13.466;2023-04-24T12:41:10;1.57;;;1.47;;
3193;SDS011;1608;50.860;13.466;2023-04-24T12:43:37;2.47;;;1.43;;
3193;SDS011;1608;50.860;13.466;2023-04-24T12:46:04;2.23;;;1.50;;
3193;SDS011;1608;50.860;13.466;2023-04-24T12:48:31;3.20;;;2.43;;
3193;SDS011;1608;50.860;13.466;2023-04-24T12:50:58;1.93;;;1.73;;
3193;SDS011;1608;50.860;13.466;2023-04-24T12:53:26;6.20;;;1.63;;
3193;SDS011;1608;50.860;13.466;2023-04-24T12:55:57;2.13;;;1.93;;
3193;SDS011;1608;50.860;13.466;2023-04-24T12:58:24;2.23;;;1.90;;
3193;SDS011;1608;50.860;13.466;2023-04-24T13:00:51;3.13;;;1.87;;
3193;SDS011;1608;50.860;13.466;2023-04-24T13:03:18;3.00;;;1.83;;
3193;SDS011;1608;50.860;13.466;2023-04-24T13:05:45;2.73;;;2.13;;
3193;SDS011;1608;50.860;13.466;2023-04-24T13:08:11;2.30;;;2.10;;
3193;SDS011;1608;50.860;13.466;2023-04-24T13:10:39;1.60;;;1.50;;
3193;SDS011;1608;50.860;13.466;2023-04-24T13:13:07;2.27;;;1.87;;
3193;SDS011;1608;50.860;13.466;2023-04-24T13:15:35;7.70;;;2.00;;
3193;SDS011;1608;50.860;13.466;2023-04-24T13:18:01;1.90;;;1.57;;
3193;SDS011;1608;50.860;13.466;2023-04-24T13:20:28;2.57;;;2.20;;
3193;SDS011;1608;50.860;13.466;2023-04-24T13:22:55;1.60;;;1.50;;
3193;SDS011;1608;50.860;13.466;2023-04-24T13:25:22;2.83;;;2.20;;
3193;SDS011;1608;50.860;13.466;2023-04-24T13:27:50;53.03;;;9.93;;
3193;SDS011;1608;50.860;13.466;2023-04-24T13:30:18;4.73;;;3.13;;
3193;SDS011;1608;50.860;13.466;2023-04-24T13:32:45;6.60;;;2.23;;
3193;SDS011;1608;50.860;13.466;2023-04-24T13:35:12;12.90;;;3.17;;
3193;SDS011;1608;50.860;13.466;2023-04-24T13:37:39;3.10;;;2.80;;
3193;SDS011;1608;50.860;13.466;2023-04-24T13:40:06;4.13;;;2.50;;
3193;SDS011;1608;50.860;13.466;2023-04-24T13:42:34;8.57;;;2.87;;
3193;SDS011;1608;50.860;13.466;2023-04-24T13:45:00;6.33;;;2.60;;
3193;SDS011;1608;50.860;13.466;2023-04-24T13:47:29;1.97;;;1.77;;
3193;SDS011;1608;50.860;13.466;2023-04-24T13:49:56;4.57;;;2.53;;
3193;SDS011;1608;50.860;13.466;2023-04-24T13:52:23;4.03;;;2.30;;
3193;SDS011;1608;50.860;13.466;2023-04-24T13:54:50;5.10;;;2.13;;
3193;SDS011;1608;50.860;13.466;2023-04-24T13:57:17;4.80;;;1.70;;
3193;SDS011;1608;50.860;13.466;2023-04-24T13:59:43;3.53;;;1.80;;
3193;SDS011;1608;50.860;13.466;2023-04-24T14:02:11;3.50;;;2.40;;
3193;SDS011;1608;50.860;13.466;2023-04-24T14:04:39;2.00;;;1.70;;
3193;SDS011;1608;50.860;13.466;2023-04-24T14:07:06;4.00;;;2.00;;
3193;SDS011;1608;50.860;13.466;2023-04-24T14:09:33;2.30;;;1.90;;
3193;SDS011;1608;50.860;13.466;2023-04-24T14:12:00;2.77;;;2.40;;
3193;SDS011;1608;50.860;13.466;2023-04-24T14:14:27;4.67;;;2.30;;
3193;SDS011;1608;50.860;13.466;2023-04-24T14:16:54;2.03;;;1.90;;
3193;SDS011;1608;50.860;13.466;2023-04-24T14:19:21;3.10;;;2.80;;
3193;SDS011;1608;50.860;13.466;2023-04-24T14:21:50;1.80;;;1.70;;
3193;SDS011;1608;50.860;13.466;2023-04-24T14:24:16;5.80;;;2.40;;
3193;SDS011;1608;50.860;13.466;2023-04-24T14:26:43;2.00;;;1.80;;
3193;SDS011;1608;50.860;13.466;2023-04-24T14:29:10;2.93;;;2.63;;
3193;SDS011;1608;50.860;13.466;2023-04-24T14:31:37;3.60;;;2.03;;
3193;SDS011;1608;50.860;13.466;2023-04-24T14:34:04;2.10;;;1.70;;
3193;SDS011;1608;50.860;13.466;2023-04-24T14:36:31;5.93;;;2.90;;
3193;SDS011;1608;50.860;13.466;2023-04-24T14:38:59;2.83;;;2.63;;
3193;SDS011;1608;50.860;13.466;2023-04-24T14:41:28;3.00;;;2.17;;
3193;SDS011;1608;50.860;13.466;2023-04-24T14:43:55;3.93;;;2.40;;
3193;SDS011;1608;50.860;13.466;2023-04-24T14:46:22;3.07;;;2.80;;
3193;SDS011;1608;50.860;13.466;2023-04-24T14:48:48;1.57;;;1.30;;
3193;SDS011;1608;50.860;13.466;2023-04-24T14:51:15;2.87;;;2.43;;
3193;SDS011;1608;50.860;13.466;2023-04-24T14:53:42;2.80;;;2.27;;
3193;SDS011;1608;50.860;13.466;2023-04-24T14:56:13;2.50;;;2.23;;
3193;SDS011;1608;50.860;13.466;2023-04-24T14:58:39;3.30;;;2.07;;
3193;SDS011;1608;50.860;13.466;2023-04-24T15:01:06;3.17;;;2.20;;
3193;SDS011;1608;50.860;13.466;2023-04-24T15:03:33;6.30;;;3.73;;